Terminal Aerodrome Forecast
Issued by NWS Bismarck, ND

Home | Current Version | Previous Version | Text Only | Print | Product List | Glossary Off
Versions: 1 2 3 4 5 6 7 8 9 10 11 12 13 14 15 16 17

000
FTUS43 KBIS 241700
TAFBIS
TAF
KBIS 241736Z 2418/2518 27009KT 2SM -RA BR SCT008 OVC010
     FM242200 32011KT 6SM -RA BR OVC010
     FM250300 32011KT 3SM -SN BR OVC010
     FM250900 35009KT P6SM OVC020=

USA.gov is the U.S. government's official web portal to all federal, state and local government web resources and services.